createdAt,value
2019-02-27T00:02:35.713Z,4.65
2019-02-27T00:07:39.307Z,4.57
2019-02-27T00:12:42.824Z,4.50
2019-02-27T00:17:51.122Z,4.52
2019-02-27T00:22:52.070Z,4.41
2019-02-27T00:27:55.637Z,4.44
2019-02-27T00:32:59.187Z,4.39
2019-02-27T00:38:02.787Z,4.27
2019-02-27T00:43:06.345Z,4.21
2019-02-27T00:48:09.922Z,4.29
2019-02-27T00:53:13.470Z,4.24
2019-02-27T00:58:17.078Z,4.22
2019-02-27T01:03:20.625Z,4.17
2019-02-27T01:08:27.256Z,4.18
2019-02-27T01:13:31.264Z,4.08
2019-02-27T01:18:34.802Z,4.16
2019-02-27T01:23:38.329Z,4.10
2019-02-27T01:28:45.426Z,3.94
2019-02-27T01:33:47.333Z,3.94
2019-02-27T01:38:50.924Z,3.89
2019-02-27T01:43:54.557Z,3.81
2019-02-27T01:48:58.456Z,3.71
2019-02-27T01:54:02.002Z,3.65
2019-02-27T01:59:05.606Z,3.50
2019-02-27T02:04:09.132Z,3.39
2019-02-27T02:09:34.865Z,3.31
2019-02-27T02:14:44.591Z,3.19
2019-02-27T02:19:53.973Z,3.13
2019-02-27T02:25:11.948Z,3.14
2019-02-27T02:30:44.186Z,3.32
2019-02-27T02:36:09.319Z,3.40
2019-02-27T02:41:34.082Z,3.33
2019-02-27T02:46:49.514Z,3.43
2019-02-27T02:52:11.330Z,3.30
2019-02-27T02:57:37.685Z,3.14
2019-02-27T03:03:02.424Z,3.41
2019-02-27T03:08:20.189Z,3.36
2019-02-27T03:13:41.553Z,3.40
2019-02-27T03:18:49.466Z,3.45
2019-02-27T03:23:56.146Z,3.35
2019-02-27T03:29:05.732Z,3.18
2019-02-27T03:34:15.190Z,3.17
2019-02-27T03:39:55.459Z,3.03
2019-02-27T03:45:31.802Z,2.99
2019-02-27T03:50:49.612Z,2.85
2019-02-27T03:56:18.105Z,2.96
2019-02-27T04:01:31.401Z,3.03
2019-02-27T04:06:47.059Z,2.96
2019-02-27T04:11:50.636Z,3.02
2019-02-27T04:16:54.236Z,2.86
2019-02-27T04:22:01.079Z,2.77
2019-02-27T04:27:03.091Z,2.78
2019-02-27T04:32:09.612Z,2.63
2019-02-27T04:37:11.921Z,2.70
2019-02-27T04:42:15.469Z,2.66
2019-02-27T04:47:19.077Z,2.69
2019-02-27T04:52:24.412Z,2.58
2019-02-27T04:57:27.942Z,2.60
2019-02-27T05:02:31.461Z,2.50
2019-02-27T05:07:35.090Z,2.53
2019-02-27T05:12:38.615Z,2.49
2019-02-27T05:17:42.163Z,2.60
2019-02-27T05:22:45.755Z,2.51
2019-02-27T05:27:49.276Z,2.46
2019-02-27T05:32:52.881Z,2.49
2019-02-27T05:37:56.432Z,2.23
2019-02-27T05:43:00.018Z,2.08
2019-02-27T05:48:03.566Z,2.04
2019-02-27T05:53:07.157Z,2.27
2019-02-27T05:58:10.711Z,2.47
2019-02-27T06:03:15.922Z,2.56
2019-02-27T06:08:19.578Z,2.41
2019-02-27T06:13:23.161Z,2.17
2019-02-27T06:18:26.679Z,2.51
2019-02-27T06:23:30.251Z,2.42
2019-02-27T06:28:33.799Z,2.24
2019-02-27T06:33:37.378Z,2.28
2019-02-27T06:38:40.903Z,2.69
2019-02-27T06:43:44.506Z,2.58
2019-02-27T06:48:48.054Z,2.52
2019-02-27T06:53:51.632Z,2.93
2019-02-27T06:58:55.150Z,3.16
2019-02-27T07:03:58.746Z,2.67
2019-02-27T07:09:02.268Z,3.10
2019-02-27T07:14:05.889Z,3.32
2019-02-27T07:19:09.446Z,3.29
2019-02-27T07:24:13.061Z,3.80
2019-02-27T07:29:21.739Z,3.33
2019-02-27T07:34:21.938Z,3.71
2019-02-27T07:39:25.460Z,3.87
2019-02-27T07:44:29.012Z,4.10
2019-02-27T07:49:32.589Z,4.80
2019-02-27T07:54:36.134Z,4.61
2019-02-27T07:59:39.709Z,4.90
2019-02-27T08:04:43.246Z,5.24
2019-02-27T08:09:46.810Z,5.25
2019-02-27T08:14:50.324Z,5.20
2019-02-27T08:19:53.891Z,6.82
2019-02-27T08:24:57.413Z,7.11
2019-02-27T08:30:01.009Z,7.93
2019-02-27T08:35:05.322Z,7.49
2019-02-27T08:40:11.212Z,8.06
2019-02-27T08:45:20.503Z,7.68
2019-02-27T08:50:24.883Z,10.07
2019-02-27T08:55:28.438Z,11.55
2019-02-27T09:00:33.572Z,12.01
2019-02-27T09:05:37.121Z,13.02
2019-02-27T09:10:40.732Z,16.10
2019-02-27T09:15:44.246Z,17.32
2019-02-27T09:20:47.850Z,17.30
2019-02-27T09:25:57.254Z,18.70
2019-02-27T09:30:56.946Z,12.21
2019-02-27T09:36:00.470Z,16.77
2019-02-27T09:41:04.862Z,18.38
2019-02-27T09:46:08.421Z,17.65
2019-02-27T09:51:11.983Z,17.82
2019-02-27T09:56:15.539Z,16.19
2019-02-27T10:01:19.140Z,12.37
2019-02-27T10:06:22.663Z,14.76
2019-02-27T10:11:26.251Z,17.88
2019-02-27T10:16:29.782Z,18.37
2019-02-27T10:21:33.357Z,13.06
2019-02-27T10:26:36.878Z,12.60
2019-02-27T10:31:40.494Z,12.74
2019-02-27T10:36:44.049Z,14.25
2019-02-27T10:41:50.549Z,12.66
2019-02-27T10:46:57.240Z,12.89
2019-02-27T10:51:59.738Z,11.91
2019-02-27T10:57:03.282Z,12.49
2019-02-27T11:02:09.731Z,12.65
2019-02-27T11:07:13.218Z,12.48
2019-02-27T11:12:17.764Z,12.26
2019-02-27T11:17:21.321Z,12.59
2019-02-27T11:22:24.951Z,12.75
2019-02-27T11:27:28.470Z,12.92
2019-02-27T11:32:32.056Z,12.98
2019-02-27T11:37:35.614Z,12.79
2019-02-27T11:42:39.202Z,12.90
2019-02-27T11:47:47.736Z,13.13
2019-02-27T11:52:49.224Z,12.83
2019-02-27T11:57:52.991Z,13.11
2019-02-27T12:02:56.708Z,13.21
2019-02-27T12:08:00.233Z,13.22
2019-02-27T12:13:03.947Z,13.54
2019-02-27T12:18:07.476Z,13.24
2019-02-27T12:23:11.104Z,13.47
2019-02-27T12:28:18.263Z,13.62
2019-02-27T12:33:20.565Z,13.34
2019-02-27T12:38:24.078Z,13.58
2019-02-27T12:43:27.675Z,13.84
2019-02-27T12:48:31.187Z,13.56
2019-02-27T12:53:34.780Z,13.67
2019-02-27T12:58:38.324Z,13.82
2019-02-27T13:03:42.999Z,13.83
2019-02-27T13:08:46.641Z,13.75
2019-02-27T13:13:50.242Z,14.04
2019-02-27T13:18:53.749Z,14.09
2019-02-27T13:23:57.329Z,14.22
2019-02-27T13:29:01.008Z,13.85
2019-02-27T13:34:04.888Z,13.87
2019-02-27T13:39:08.600Z,13.93
2019-02-27T13:44:12.158Z,14.03
2019-02-27T13:49:15.698Z,14.05
2019-02-27T13:54:19.271Z,14.02
2019-02-27T13:59:22.793Z,14.10
2019-02-27T14:04:26.803Z,14.07
2019-02-27T14:09:30.347Z,14.16
2019-02-27T14:14:33.940Z,14.26
2019-02-27T14:19:37.567Z,14.21
2019-02-27T14:24:41.202Z,14.10
2019-02-27T14:29:44.997Z,14.07
2019-02-27T14:34:48.588Z,14.12
2019-02-27T14:39:52.125Z,14.03
2019-02-27T14:44:55.709Z,13.99
2019-02-27T14:50:00.147Z,13.84
2019-02-27T14:55:04.449Z,13.90
2019-02-27T15:00:24.376Z,13.84
2019-02-27T15:05:27.645Z,13.87
2019-02-27T15:10:31.218Z,13.84
2019-02-27T15:15:34.763Z,13.70
2019-02-27T15:20:40.983Z,13.67
2019-02-27T15:25:43.612Z,13.58
2019-02-27T15:30:47.488Z,13.48
2019-02-27T15:35:55.032Z,13.33
2019-02-27T15:40:56.320Z,13.28
2019-02-27T15:45:59.842Z,13.12
2019-02-27T15:51:03.420Z,13.06
2019-02-27T15:56:08.577Z,12.89
2019-02-27T16:01:12.820Z,12.79
2019-02-27T16:06:16.335Z,12.67
2019-02-27T16:11:19.950Z,12.58
2019-02-27T16:16:23.523Z,12.41
2019-02-27T16:21:28.713Z,12.25
2019-02-27T16:26:32.258Z,12.16
2019-02-27T16:31:37.118Z,12.08
2019-02-27T16:36:41.193Z,11.80
2019-02-27T16:41:45.132Z,11.68
2019-02-27T16:46:48.816Z,11.60
2019-02-27T16:51:52.395Z,11.47
2019-02-27T16:56:57.902Z,11.46
2019-02-27T17:02:03.940Z,11.27
2019-02-27T17:07:06.513Z,11.19
2019-02-27T17:12:10.306Z,11.17
2019-02-27T17:17:16.125Z,11.24
2019-02-27T17:22:19.170Z,11.01
2019-02-27T17:27:22.722Z,10.99
2019-02-27T17:32:27.486Z,10.84
2019-02-27T17:37:31.619Z,10.85
2019-02-27T17:42:35.222Z,10.75
2019-02-27T17:47:38.870Z,10.78
2019-02-27T17:52:42.452Z,10.66
2019-02-27T17:57:46.381Z,10.60
2019-02-27T18:02:50.270Z,10.47
2019-02-27T18:07:53.791Z,10.31
2019-02-27T18:13:01.240Z,10.33
2019-02-27T18:18:07.091Z,10.27
2019-02-27T18:23:11.706Z,10.20
2019-02-27T18:28:15.411Z,9.95
2019-02-27T18:33:19.042Z,9.95
2019-02-27T18:38:27.507Z,9.86
2019-02-27T18:43:30.146Z,9.65
2019-02-27T18:48:33.334Z,9.52
2019-02-27T18:53:37.020Z,9.44
2019-02-27T18:58:40.567Z,9.51
2019-02-27T19:03:44.244Z,9.38
2019-02-27T19:08:47.836Z,9.32
2019-02-27T19:13:53.105Z,9.23
2019-02-27T19:18:56.835Z,9.13
2019-02-27T19:24:00.424Z,9.02
2019-02-27T19:29:05.009Z,8.88
2019-02-27T19:34:10.329Z,8.83
2019-02-27T19:39:14.152Z,8.70
2019-02-27T19:44:17.769Z,8.67
2019-02-27T19:49:21.439Z,8.61
2019-02-27T19:54:25.047Z,8.47
2019-02-27T19:59:29.575Z,8.41
2019-02-27T20:04:33.195Z,8.30
2019-02-27T20:09:36.973Z,8.21
2019-02-27T20:14:40.628Z,8.12
2019-02-27T20:19:44.349Z,8.06
2019-02-27T20:24:47.998Z,8.02
2019-02-27T20:29:51.699Z,8.04
2019-02-27T20:34:55.299Z,7.91
2019-02-27T20:39:59.500Z,7.94
2019-02-27T20:45:03.433Z,8.00
2019-02-27T20:50:12.779Z,7.79
2019-02-27T20:55:16.425Z,7.93
2019-02-27T21:00:24.100Z,7.81
2019-02-27T21:05:27.958Z,7.79
2019-02-27T21:10:33.124Z,7.93
2019-02-27T21:15:36.655Z,7.82
2019-02-27T21:20:42.199Z,7.69
2019-02-27T21:25:50.245Z,7.75
2019-02-27T21:30:53.911Z,7.74
2019-02-27T21:36:02.485Z,7.70
2019-02-27T21:41:03.224Z,7.69
2019-02-27T21:46:08.371Z,7.65
2019-02-27T21:51:13.696Z,7.51
2019-02-27T21:56:18.042Z,7.55
2019-02-27T22:01:22.639Z,7.44
2019-02-27T22:06:27.442Z,7.45
2019-02-27T22:11:31.672Z,7.39
2019-02-27T22:16:35.334Z,7.30
2019-02-27T22:21:38.910Z,7.53
2019-02-27T22:26:42.430Z,7.64
2019-02-27T22:31:46.395Z,7.66
2019-02-27T22:36:49.936Z,7.36
2019-02-27T22:41:54.116Z,7.53
2019-02-27T22:46:57.639Z,7.55
2019-02-27T22:52:01.234Z,7.48
2019-02-27T22:57:05.354Z,7.47
2019-02-27T23:02:08.941Z,7.24
2019-02-27T23:07:12.537Z,7.26
2019-02-27T23:12:16.112Z,7.31
2019-02-27T23:17:19.665Z,7.20
2019-02-27T23:22:23.598Z,7.19
2019-02-27T23:27:27.161Z,7.16
2019-02-27T23:32:30.697Z,7.13
2019-02-27T23:37:34.546Z,7.16
2019-02-27T23:42:38.107Z,7.15
2019-02-27T23:47:41.622Z,6.95
2019-02-27T23:52:45.181Z,6.62
2019-02-27T23:57:48.708Z,6.63
